Time;durP1;ratioP1;P1;durP2;ratioP2;P2;SDS_P1;SDS_P2;PMS_P1;PMS_P2;Temp;Humidity;BMP_temperature;BMP_pressure;BME280_temperature;BME280_humidity;BME280_pressure;Samples;Min_cycle;Max_cycle;Signal;HPM_P1;HPM_P2
2022/05/06 00:03:00;;;;;;;9.07;7.50;;;;;;;;;;4988407;28;20210;-87
2022/05/06 00:06:04;;;;;;;8.40;7.23;;;;;;;;;;4973133;28;20186;-84
2022/05/06 00:09:09;;;;;;;8.07;7.27;;;;;;;;;;4993832;28;20214;-87
2022/05/06 00:12:17;;;;;;;9.53;7.73;;;;;;;;;;4993979;28;20194;-85
2022/05/06 00:15:21;;;;;;;7.67;6.70;;;;;;;;;;4971600;28;20190;-87
2022/05/06 00:18:25;;;;;;;8.13;7.33;;;;;;;;;;5004096;28;20708;-87
2022/05/06 00:21:29;;;;;;;8.30;7.17;;;;;;;;;;4994239;28;20182;-84
2022/05/06 00:24:33;;;;;;;8.53;7.60;;;;;;;;;;5004334;28;20186;-87
2022/05/06 00:27:40;;;;;;;10.53;8.00;;;;;;;;;;5004810;28;20221;-85
2022/05/06 00:30:44;;;;;;;10.03;7.40;;;;;;;;;;4993665;28;20210;-84
2022/05/06 00:33:49;;;;;;;9.80;7.77;;;;;;;;;;4986139;28;20195;-84
2022/05/06 00:36:55;;;;;;;8.40;7.60;;;;;;;;;;4989048;28;20531;-88
2022/05/06 00:39:59;;;;;;;9.50;8.10;;;;;;;;;;4977033;28;20186;-85
2022/05/06 00:43:03;;;;;;;7.80;7.07;;;;;;;;;;5008630;28;20198;-85
2022/05/06 00:46:16;;;;;;;9.10;7.67;;;;;;;;;;4998595;28;20286;-85
2022/05/06 00:49:22;;;;;;;10.50;7.50;;;;;;;;;;5008999;28;20198;-84
2022/05/06 00:52:26;;;;;;;8.73;7.83;;;;;;;;;;4990304;28;20190;-87
2022/05/06 00:55:33;;;;;;;8.50;7.70;;;;;;;;;;4997720;28;20186;-88
2022/05/06 00:58:37;;;;;;;8.57;7.67;;;;;;;;;;4992663;28;20230;-85
2022/05/06 01:01:41;;;;;;;9.40;7.23;;;;;;;;;;4986349;28;20538;-88
2022/05/06 01:04:46;;;;;;;9.07;7.77;;;;;;;;;;4997342;28;20546;-85
2022/05/06 01:07:52;;;;;;;8.00;7.20;;;;;;;;;;5008766;28;20218;-84
2022/05/06 01:10:57;;;;;;;8.17;7.37;;;;;;;;;;4997746;28;20182;-87
2022/05/06 01:14:02;;;;;;;8.23;7.43;;;;;;;;;;4997386;28;20538;-85
2022/05/06 01:17:11;;;;;;;9.13;8.07;;;;;;;;;;4997651;28;20221;-85
2022/05/06 01:20:17;;;;;;;8.47;7.57;;;;;;;;;;5008312;28;20182;-89
2022/05/06 01:23:23;;;;;;;9.00;7.50;;;;;;;;;;4980300;28;20202;-84
2022/05/06 01:26:55;;;;;;;9.67;8.60;;;;;;;;;;4988164;28;20187;-88
2022/05/06 01:30:01;;;;;;;11.87;8.57;;;;;;;;;;4997073;28;20550;-87
2022/05/06 01:33:07;;;;;;;9.63;8.03;;;;;;;;;;4996755;28;20187;-86
2022/05/06 01:36:12;;;;;;;9.47;8.57;;;;;;;;;;4996490;28;20182;-85
2022/05/06 01:39:20;;;;;;;9.23;7.93;;;;;;;;;;5005045;28;20219;-85
2022/05/06 01:42:29;;;;;;;8.43;7.57;;;;;;;;;;4967430;28;20504;-86
2022/05/06 01:45:42;;;;;;;8.63;7.83;;;;;;;;;;5018490;28;20190;-86
2022/05/06 01:48:51;;;;;;;9.90;8.73;;;;;;;;;;4995192;28;20221;-86
2022/05/06 01:51:57;;;;;;;9.93;8.93;;;;;;;;;;4982833;28;20198;-88
2022/05/06 01:55:05;;;;;;;8.97;8.07;;;;;;;;;;5003755;28;20206;-86
2022/05/06 01:58:18;;;;;;;12.43;9.27;;;;;;;;;;4997726;28;20574;-86
2022/05/06 02:01:32;;;;;;;9.23;8.30;;;;;;;;;;4998257;28;20199;-86
2022/05/06 02:08:00;;;;;;;11.77;9.07;;;;;;;;;;4996732;28;20222;-85
2022/05/06 02:11:06;;;;;;;10.40;9.30;;;;;;;;;;5016796;28;20197;-86
2022/05/06 02:14:11;;;;;;;10.60;8.83;;;;;;;;;;4996271;28;20190;-85
2022/05/06 02:17:26;;;;;;;9.67;8.67;;;;;;;;;;5007104;28;20226;-85
2022/05/06 02:20:44;;;;;;;10.57;9.47;;;;;;;;;;4984842;28;20202;-85
2022/05/06 02:24:03;;;;;;;9.77;8.43;;;;;;;;;;4984901;28;20199;-85
2022/05/06 02:27:07;;;;;;;10.77;9.13;;;;;;;;;;5003429;28;20225;-86
2022/05/06 02:33:43;;;;;;;9.50;8.17;;;;;;;;;;4993137;28;20194;-85
2022/05/06 02:36:56;;;;;;;10.47;9.10;;;;;;;;;;4980604;28;20198;-86
2022/05/06 02:40:12;;;;;;;10.90;9.80;;;;;;;;;;4996274;28;20183;-86
2022/05/06 02:43:17;;;;;;;9.63;8.63;;;;;;;;;;5003406;28;20206;-85
2022/05/06 02:46:24;;;;;;;11.67;9.87;;;;;;;;;;5007032;28;20186;-85
2022/05/06 02:49:30;;;;;;;12.13;9.93;;;;;;;;;;4979280;28;20210;-86
2022/05/06 02:52:34;;;;;;;11.17;9.13;;;;;;;;;;4984480;28;20661;-85
2022/05/06 02:55:39;;;;;;;10.27;8.87;;;;;;;;;;4996401;28;20190;-85
2022/05/06 02:58:45;;;;;;;9.30;8.23;;;;;;;;;;4984237;28;20226;-85
2022/05/06 03:01:49;;;;;;;9.40;8.50;;;;;;;;;;5011081;28;20206;-86
2022/05/06 03:04:53;;;;;;;9.93;8.93;;;;;;;;;;4988254;28;20639;-85
2022/05/06 03:07:58;;;;;;;10.37;9.00;;;;;;;;;;4975507;28;20226;-86
2022/05/06 03:11:07;;;;;;;10.03;9.03;;;;;;;;;;4954471;28;20187;-86
2022/05/06 03:14:18;;;;;;;15.03;9.80;;;;;;;;;;5005257;28;20193;-88
2022/05/06 03:17:36;;;;;;;24.83;15.53;;;;;;;;;;4983728;28;20229;-87
2022/05/06 03:20:40;;;;;;;48.47;24.20;;;;;;;;;;4994063;28;20189;-88
2022/05/06 03:23:50;;;;;;;34.97;19.97;;;;;;;;;;4994451;28;20197;-84
2022/05/06 03:26:55;;;;;;;30.27;17.13;;;;;;;;;;4995508;28;20202;-87
2022/05/06 03:30:00;;;;;;;26.47;15.60;;;;;;;;;;4973108;28;20205;-85
2022/05/06 03:33:08;;;;;;;23.90;15.20;;;;;;;;;;4971665;28;20205;-85
2022/05/06 03:36:15;;;;;;;19.90;14.10;;;;;;;;;;4979623;28;20193;-85
2022/05/06 03:39:48;;;;;;;19.70;12.43;;;;;;;;;;4982637;28;20221;-85
2022/05/06 03:42:52;;;;;;;14.73;11.03;;;;;;;;;;5006692;28;20197;-88
2022/05/06 03:45:57;;;;;;;15.83;11.87;;;;;;;;;;5005463;28;20189;-85
2022/05/06 03:49:02;;;;;;;18.73;12.30;;;;;;;;;;4993648;28;20286;-88
2022/05/06 03:52:09;;;;;;;18.70;11.70;;;;;;;;;;4985328;28;20209;-86
2022/05/06 03:55:15;;;;;;;13.27;11.37;;;;;;;;;;4973620;28;20213;-85
2022/05/06 03:58:19;;;;;;;13.37;11.40;;;;;;;;;;4975560;28;20240;-85
2022/05/06 04:01:23;;;;;;;17.57;12.40;;;;;;;;;;4972100;28;20217;-85
2022/05/06 04:04:32;;;;;;;16.47;11.77;;;;;;;;;;5005476;28;20668;-88
2022/05/06 04:07:40;;;;;;;16.57;12.00;;;;;;;;;;4995692;28;20615;-85
2022/05/06 04:10:44;;;;;;;13.77;12.33;;;;;;;;;;4992652;28;20259;-87
2022/05/06 04:13:49;;;;;;;13.00;11.70;;;;;;;;;;4982413;28;20227;-85
2022/05/06 04:16:53;;;;;;;12.27;10.87;;;;;;;;;;4982828;28;20573;-87
2022/05/06 04:23:30;;;;;;;15.80;11.53;;;;;;;;;;4993750;28;20201;-88
2022/05/06 04:26:36;;;;;;;13.60;11.60;;;;;;;;;;5004607;28;20193;-88
2022/05/06 04:29:41;;;;;;;13.77;11.00;;;;;;;;;;5003975;28;20197;-86
2022/05/06 04:32:45;;;;;;;13.30;11.00;;;;;;;;;;4967912;28;20210;-85
2022/05/06 04:35:53;;;;;;;14.17;11.33;;;;;;;;;;4985247;28;20562;-85
2022/05/06 04:39:01;;;;;;;14.40;12.00;;;;;;;;;;4976121;28;20728;-88
2022/05/06 04:42:07;;;;;;;19.13;12.00;;;;;;;;;;4982232;28;20186;-88
2022/05/06 04:45:15;;;;;;;18.63;12.33;;;;;;;;;;4992457;28;20206;-85
2022/05/06 04:48:29;;;;;;;19.57;12.13;;;;;;;;;;4972615;28;20226;-87
2022/05/06 04:51:36;;;;;;;15.13;11.70;;;;;;;;;;4995933;28;20218;-85
2022/05/06 04:54:40;;;;;;;17.63;12.43;;;;;;;;;;4988144;28;20214;-85
2022/05/06 04:57:44;;;;;;;17.27;13.63;;;;;;;;;;4984777;28;20225;-88
2022/05/06 05:00:49;;;;;;;18.33;11.90;;;;;;;;;;4983709;28;20206;-88
2022/05/06 05:03:59;;;;;;;17.37;13.00;;;;;;;;;;4984136;28;20206;-86
2022/05/06 05:07:04;;;;;;;16.07;12.83;;;;;;;;;;4994554;28;20201;-87
2022/05/06 05:10:12;;;;;;;15.17;12.33;;;;;;;;;;4964971;28;20209;-85
2022/05/06 05:13:17;;;;;;;16.07;12.63;;;;;;;;;;4973358;28;20217;-87
2022/05/06 05:16:22;;;;;;;16.90;13.17;;;;;;;;;;4973824;28;20190;-87
2022/05/06 05:19:26;;;;;;;16.63;11.83;;;;;;;;;;4979863;28;20225;-85
2022/05/06 05:22:36;;;;;;;16.77;11.57;;;;;;;;;;4992962;28;20201;-87
2022/05/06 05:25:43;;;;;;;12.20;10.83;;;;;;;;;;4986188;28;20660;-87
2022/05/06 05:28:47;;;;;;;16.73;11.90;;;;;;;;;;4971895;28;20217;-85
2022/05/06 05:31:52;;;;;;;14.50;11.40;;;;;;;;;;4983974;28;20221;-87
2022/05/06 05:34:57;;;;;;;13.80;11.43;;;;;;;;;;4993174;28;20679;-85
2022/05/06 05:38:04;;;;;;;14.37;10.50;;;;;;;;;;5000827;28;20225;-85
2022/05/06 05:41:11;;;;;;;13.67;11.93;;;;;;;;;;4967264;28;20194;-85
2022/05/06 05:51:03;;;;;;;15.10;11.77;;;;;;;;;;4997649;28;20185;-84
2022/05/06 05:54:15;;;;;;;16.33;12.10;;;;;;;;;;4987670;28;20198;-84
2022/05/06 05:57:20;;;;;;;11.97;10.70;;;;;;;;;;4979341;28;20237;-84
2022/05/06 06:00:27;;;;;;;17.97;12.37;;;;;;;;;;4996738;28;20229;-83
2022/05/06 06:03:35;;;;;;;16.63;12.27;;;;;;;;;;4998840;28;20213;-84
2022/05/06 06:06:43;;;;;;;15.00;11.80;;;;;;;;;;4977629;28;20194;-84
2022/05/06 06:09:47;;;;;;;17.63;12.07;;;;;;;;;;4977507;28;20198;-84
2022/05/06 06:12:51;;;;;;;16.40;11.93;;;;;;;;;;5003604;28;20205;-84
2022/05/06 06:15:57;;;;;;;17.37;12.07;;;;;;;;;;4974274;28;20205;-84
2022/05/06 06:19:03;;;;;;;14.20;11.23;;;;;;;;;;5007721;28;20236;-84
2022/05/06 06:22:13;;;;;;;14.07;10.53;;;;;;;;;;4995172;28;20209;-84
2022/05/06 06:25:46;;;;;;;12.60;10.60;;;;;;;;;;5003038;28;20661;-86
2022/05/06 06:28:51;;;;;;;12.23;10.90;;;;;;;;;;4971246;28;20229;-85
2022/05/06 06:31:54;;;;;;;11.50;10.10;;;;;;;;;;4979854;28;20209;-85
2022/05/06 06:34:59;;;;;;;11.60;9.83;;;;;;;;;;4988874;28;20205;-85
2022/05/06 06:38:09;;;;;;;17.60;11.27;;;;;;;;;;4994035;28;20729;-85
2022/05/06 06:41:20;;;;;;;15.43;10.73;;;;;;;;;;4981706;28;20201;-85
2022/05/06 06:44:25;;;;;;;16.57;11.47;;;;;;;;;;4987180;28;20669;-85
2022/05/06 06:47:47;;;;;;;12.87;10.53;;;;;;;;;;4982532;28;20229;-85
2022/05/06 06:51:04;;;;;;;15.33;10.73;;;;;;;;;;5000863;28;20193;-85
2022/05/06 06:54:09;;;;;;;13.03;10.50;;;;;;;;;;4973018;28;20589;-85
2022/05/06 06:57:15;;;;;;;14.73;10.47;;;;;;;;;;5006129;28;20325;-85
2022/05/06 07:00:19;;;;;;;13.03;10.63;;;;;;;;;;5005522;28;20724;-85
2022/05/06 07:03:23;;;;;;;12.87;10.10;;;;;;;;;;4986919;28;20190;-85
2022/05/06 07:13:14;;;;;;;11.10;9.90;;;;;;;;;;4994610;28;20209;-85
2022/05/06 07:16:18;;;;;;;12.07;10.43;;;;;;;;;;4983161;28;20206;-85
2022/05/06 07:19:22;;;;;;;14.43;10.00;;;;;;;;;;5005513;28;20225;-85
2022/05/06 07:22:26;;;;;;;13.50;9.80;;;;;;;;;;4994728;28;20209;-85
2022/05/06 07:25:31;;;;;;;11.43;9.53;;;;;;;;;;4972987;28;20186;-85
2022/05/06 07:28:35;;;;;;;11.67;9.50;;;;;;;;;;4994743;28;20230;-85
2022/05/06 07:31:41;;;;;;;11.93;9.40;;;;;;;;;;5004585;28;20209;-86
2022/05/06 07:34:45;;;;;;;12.33;9.63;;;;;;;;;;4995099;28;20206;-85
2022/05/06 07:37:49;;;;;;;12.70;10.50;;;;;;;;;;5005859;28;20221;-85
2022/05/06 07:40:53;;;;;;;13.20;10.40;;;;;;;;;;4980977;28;20229;-85
2022/05/06 07:43:57;;;;;;;14.23;10.40;;;;;;;;;;4994471;28;20193;-85
2022/05/06 07:47:02;;;;;;;12.23;10.00;;;;;;;;;;4993434;28;20201;-85
2022/05/06 07:50:06;;;;;;;14.47;10.23;;;;;;;;;;4994174;28;20205;-85
2022/05/06 07:53:15;;;;;;;13.27;11.23;;;;;;;;;;5005087;28;20193;-85
2022/05/06 07:56:19;;;;;;;11.37;10.17;;;;;;;;;;4994199;28;20193;-88
2022/05/06 07:59:23;;;;;;;13.17;11.10;;;;;;;;;;4993665;28;20237;-85
2022/05/06 08:05:56;;;;;;;13.73;10.23;;;;;;;;;;4992960;28;20642;-86
2022/05/06 08:09:00;;;;;;;12.10;9.33;;;;;;;;;;4990768;28;20711;-85
2022/05/06 08:12:05;;;;;;;12.87;10.27;;;;;;;;;;5004527;28;20669;-85
2022/05/06 08:15:09;;;;;;;14.03;9.80;;;;;;;;;;4982757;28;20194;-86
2022/05/06 08:18:14;;;;;;;13.00;10.73;;;;;;;;;;4993083;28;20221;-85
2022/05/06 08:21:18;;;;;;;14.73;11.40;;;;;;;;;;5004936;28;20577;-85
2022/05/06 08:24:22;;;;;;;11.30;9.90;;;;;;;;;;4998456;28;20205;-85
2022/05/06 08:27:26;;;;;;;13.57;10.50;;;;;;;;;;4993766;28;20217;-85
2022/05/06 08:30:30;;;;;;;13.70;11.57;;;;;;;;;;4971273;28;20217;-85
2022/05/06 08:33:34;;;;;;;13.80;10.37;;;;;;;;;;5005286;28;20197;-85
2022/05/06 08:36:41;;;;;;;11.33;9.80;;;;;;;;;;4964522;28;20562;-85
2022/05/06 08:39:45;;;;;;;15.00;10.07;;;;;;;;;;4985516;28;20670;-85
2022/05/06 08:42:50;;;;;;;13.63;10.47;;;;;;;;;;4974159;28;20198;-85
2022/05/06 08:52:43;;;;;;;10.87;9.77;;;;;;;;;;4993760;28;20186;-85
2022/05/06 08:55:48;;;;;;;13.70;10.20;;;;;;;;;;4971424;28;20558;-85
2022/05/06 08:58:54;;;;;;;11.50;9.93;;;;;;;;;;4997288;28;20224;-85
2022/05/06 09:01:58;;;;;;;13.90;10.37;;;;;;;;;;4985814;28;20194;-85
2022/05/06 09:05:13;;;;;;;12.43;10.20;;;;;;;;;;4965724;28;20562;-85
2022/05/06 09:08:18;;;;;;;11.97;10.73;;;;;;;;;;4997792;28;20581;-85
2022/05/06 09:18:24;;;;;;;13.17;10.43;;;;;;;;;;4989664;28;20238;-85
2022/05/06 09:21:28;;;;;;;15.27;10.17;;;;;;;;;;4966649;28;20238;-85
2022/05/06 09:24:33;;;;;;;14.10;10.90;;;;;;;;;;4983299;28;20209;-85
2022/05/06 09:27:37;;;;;;;12.17;9.17;;;;;;;;;;4996313;28;20237;-85
2022/05/06 09:30:58;;;;;;;15.17;10.13;;;;;;;;;;5004719;28;20209;-85
2022/05/06 09:34:09;;;;;;;11.43;9.77;;;;;;;;;;4997488;28;20217;-85
2022/05/06 09:37:28;;;;;;;13.27;10.67;;;;;;;;;;5006041;28;20222;-86
2022/05/06 09:40:33;;;;;;;13.60;9.70;;;;;;;;;;4985168;28;20236;-85
2022/05/06 09:43:56;;;;;;;13.97;9.60;;;;;;;;;;5054371;23;20240;-84
2022/05/06 09:47:09;;;;;;;12.07;9.97;;;;;;;;;;5043689;28;20196;-83
2022/05/06 09:50:13;;;;;;;10.60;9.50;;;;;;;;;;5021212;28;20185;-84
2022/05/06 09:53:19;;;;;;;14.63;9.77;;;;;;;;;;5046700;28;20219;-84
2022/05/06 09:56:24;;;;;;;10.60;9.17;;;;;;;;;;5052702;28;20653;-84
2022/05/06 09:59:29;;;;;;;11.40;9.50;;;;;;;;;;5032017;28;20642;-84
2022/05/06 10:02:37;;;;;;;11.63;8.73;;;;;;;;;;5027842;28;20713;-84
2022/05/06 10:05:41;;;;;;;12.10;8.50;;;;;;;;;;5055863;28;20204;-84
2022/05/06 10:08:49;;;;;;;13.10;8.33;;;;;;;;;;5015459;28;20205;-84
2022/05/06 10:11:55;;;;;;;11.20;8.67;;;;;;;;;;5035877;28;20681;-84
2022/05/06 10:15:02;;;;;;;9.80;7.40;;;;;;;;;;5000935;28;20189;-84
2022/05/06 10:18:09;;;;;;;11.23;7.53;;;;;;;;;;5026050;28;20196;-84
2022/05/06 10:21:14;;;;;;;10.77;8.27;;;;;;;;;;5034495;28;20220;-84
2022/05/06 10:24:20;;;;;;;11.20;8.80;;;;;;;;;;5050943;28;20690;-84
2022/05/06 10:34:35;;;;;;;13.23;9.70;;;;;;;;;;4987021;28;20200;-84
2022/05/06 10:37:43;;;;;;;13.67;9.90;;;;;;;;;;4990704;28;20181;-84
2022/05/06 10:40:49;;;;;;;12.30;9.50;;;;;;;;;;5024132;28;20294;-84
2022/05/06 10:43:53;;;;;;;15.50;9.17;;;;;;;;;;5035002;28;20238;-85
2022/05/06 10:46:57;;;;;;;11.37;9.43;;;;;;;;;;5040093;28;20183;-84
2022/05/06 10:50:12;;;;;;;11.87;9.60;;;;;;;;;;5029270;28;20200;-85
2022/05/06 10:53:32;;;;;;;12.47;9.93;;;;;;;;;;5053820;28;20699;-85
2022/05/06 10:56:36;;;;;;;11.43;10.17;;;;;;;;;;5031275;28;20192;-85
2022/05/06 10:59:50;;;;;;;14.87;9.60;;;;;;;;;;5031577;28;20210;-85
2022/05/06 11:02:58;;;;;;;14.07;10.30;;;;;;;;;;5047028;28;20228;-85
2022/05/06 11:06:02;;;;;;;16.60;11.43;;;;;;;;;;5050559;28;20206;-85
2022/05/06 11:09:08;;;;;;;11.53;9.70;;;;;;;;;;5073922;28;20187;-85
2022/05/06 11:12:35;;;;;;;12.00;9.63;;;;;;;;;;5078003;28;20231;-85
2022/05/06 11:15:40;;;;;;;11.87;9.30;;;;;;;;;;5087991;28;20179;-86
2022/05/06 11:18:45;;;;;;;12.80;10.00;;;;;;;;;;5022767;28;20196;-85
2022/05/06 11:21:49;;;;;;;12.90;9.67;;;;;;;;;;5026834;28;20239;-85
2022/05/06 11:24:56;;;;;;;13.53;9.70;;;;;;;;;;5030684;28;20192;-85
2022/05/06 11:28:03;;;;;;;12.40;9.50;;;;;;;;;;5033583;28;20639;-85
2022/05/06 11:31:11;;;;;;;11.37;9.80;;;;;;;;;;5050420;28;20192;-86
2022/05/06 11:34:15;;;;;;;13.30;9.67;;;;;;;;;;5045750;28;20187;-86
2022/05/06 11:37:24;;;;;;;17.03;9.03;;;;;;;;;;5046684;28;20194;-86
2022/05/06 11:43:37;;;;;;;9.83;8.43;;;;;;;;;;5061422;28;20223;-85
2022/05/06 11:50:15;;;;;;;10.73;8.43;;;;;;;;;;5030225;28;20188;-85
2022/05/06 11:53:21;;;;;;;14.03;8.70;;;;;;;;;;5030029;28;20219;-85
2022/05/06 11:56:27;;;;;;;11.30;9.43;;;;;;;;;;5030168;28;20204;-85
2022/05/06 11:59:32;;;;;;;10.43;8.73;;;;;;;;;;5030261;28;20654;-85
2022/05/06 12:02:36;;;;;;;12.50;10.00;;;;;;;;;;5019033;28;20220;-85
2022/05/06 12:05:41;;;;;;;12.70;10.57;;;;;;;;;;5029987;28;20187;-85
2022/05/06 12:08:45;;;;;;;11.93;9.37;;;;;;;;;;5041221;28;20207;-85
2022/05/06 12:12:10;;;;;;;14.63;10.90;;;;;;;;;;5018767;28;20220;-85
2022/05/06 12:15:15;;;;;;;13.93;9.37;;;;;;;;;;5030437;28;20203;-85
2022/05/06 12:18:24;;;;;;;10.93;8.87;;;;;;;;;;5028616;28;20188;-84
2022/05/06 12:21:28;;;;;;;11.13;9.30;;;;;;;;;;5018258;28;20216;-86
2022/05/06 12:24:45;;;;;;;12.27;10.13;;;;;;;;;;5029886;28;20184;-85
2022/05/06 12:28:20;;;;;;;12.10;9.17;;;;;;;;;;5041424;28;20195;-85
2022/05/06 12:31:26;;;;;;;10.63;9.30;;;;;;;;;;5029849;28;20180;-85
2022/05/06 12:34:32;;;;;;;9.97;8.43;;;;;;;;;;5022835;28;20188;-85
2022/05/06 12:37:52;;;;;;;13.30;8.93;;;;;;;;;;5034015;28;20180;-85
2022/05/06 12:40:56;;;;;;;10.60;9.10;;;;;;;;;;5022660;28;20228;-85
2022/05/06 12:44:17;;;;;;;12.17;10.17;;;;;;;;;;5022475;28;20172;-85
2022/05/06 12:50:44;;;;;;;9.87;8.70;;;;;;;;;;5045188;28;20189;-85
2022/05/06 12:53:48;;;;;;;10.17;9.03;;;;;;;;;;5022043;28;20559;-85
2022/05/06 12:56:56;;;;;;;12.43;9.40;;;;;;;;;;5022798;28;20192;-85
2022/05/06 13:00:00;;;;;;;11.17;9.63;;;;;;;;;;5033068;28;20204;-85
2022/05/06 13:03:04;;;;;;;9.73;8.60;;;;;;;;;;5022061;28;20216;-85
2022/05/06 13:06:08;;;;;;;12.00;8.90;;;;;;;;;;5021651;28;20188;-85
2022/05/06 13:09:12;;;;;;;14.30;9.33;;;;;;;;;;5033429;28;20192;-85
2022/05/06 13:12:18;;;;;;;12.13;9.23;;;;;;;;;;5032982;28;20687;-85
2022/05/06 13:15:22;;;;;;;14.80;9.87;;;;;;;;;;5033744;28;20189;-85
2022/05/06 13:18:27;;;;;;;10.10;9.00;;;;;;;;;;5033206;28;20176;-85
2022/05/06 13:21:31;;;;;;;12.13;9.20;;;;;;;;;;5033105;28;20212;-85
2022/05/06 13:24:35;;;;;;;14.90;9.27;;;;;;;;;;5032822;28;20184;-85
2022/05/06 13:27:39;;;;;;;13.60;9.67;;;;;;;;;;5021772;28;20646;-85
2022/05/06 13:30:44;;;;;;;13.53;9.07;;;;;;;;;;5032357;28;20187;-86
2022/05/06 13:33:48;;;;;;;13.20;9.07;;;;;;;;;;5021364;28;20216;-86
2022/05/06 13:36:52;;;;;;;9.97;8.93;;;;;;;;;;5037496;28;20191;-87
2022/05/06 13:39:56;;;;;;;16.30;10.07;;;;;;;;;;5024237;28;20180;-87
2022/05/06 13:43:01;;;;;;;15.73;11.70;;;;;;;;;;5055577;28;20239;-87
2022/05/06 13:46:06;;;;;;;13.63;9.27;;;;;;;;;;5032975;28;20222;-87
2022/05/06 13:49:10;;;;;;;14.27;9.73;;;;;;;;;;5021839;28;20196;-87
2022/05/06 13:52:15;;;;;;;13.97;9.70;;;;;;;;;;5044689;28;20214;-86
2022/05/06 13:55:18;;;;;;;12.80;9.57;;;;;;;;;;5064012;28;20180;-86
2022/05/06 14:01:47;;;;;;;14.03;11.60;;;;;;;;;;5044005;28;20226;-86
2022/05/06 14:04:51;;;;;;;16.77;10.80;;;;;;;;;;5052360;28;20186;-86
2022/05/06 14:08:00;;;;;;;12.10;9.73;;;;;;;;;;5014731;28;20191;-86
2022/05/06 14:11:04;;;;;;;15.53;10.37;;;;;;;;;;5051490;28;20195;-86
2022/05/06 14:14:08;;;;;;;13.87;9.87;;;;;;;;;;5040447;28;20209;-86
2022/05/06 14:17:12;;;;;;;15.00;11.97;;;;;;;;;;5062329;28;20572;-86
2022/05/06 14:20:16;;;;;;;11.57;10.47;;;;;;;;;;5032299;28;20187;-86
2022/05/06 14:23:21;;;;;;;13.47;11.80;;;;;;;;;;5021188;28;20728;-86
2022/05/06 14:26:54;;;;;;;12.97;11.67;;;;;;;;;;5033129;28;20187;-87
2022/05/06 14:29:58;;;;;;;14.43;10.33;;;;;;;;;;5035944;28;20192;-86
2022/05/06 14:33:03;;;;;;;20.00;11.73;;;;;;;;;;5035083;28;20605;-86
2022/05/06 14:36:07;;;;;;;13.43;10.70;;;;;;;;;;5043959;28;20202;-86
2022/05/06 14:39:11;;;;;;;13.73;11.47;;;;;;;;;;5024118;28;20208;-86
2022/05/06 14:42:16;;;;;;;17.23;11.17;;;;;;;;;;5030482;28;20235;-87
2022/05/06 14:45:20;;;;;;;12.30;10.30;;;;;;;;;;5021107;28;20183;-86
2022/05/06 14:48:24;;;;;;;14.73;10.53;;;;;;;;;;5034013;28;20191;-86
2022/05/06 14:51:39;;;;;;;23.07;16.93;;;;;;;;;;5031154;28;20200;-86
2022/05/06 14:54:43;;;;;;;27.30;21.90;;;;;;;;;;5022559;28;20690;-86
2022/05/06 14:57:48;;;;;;;22.70;18.53;;;;;;;;;;5034872;28;20211;-86
2022/05/06 15:00:52;;;;;;;18.10;16.23;;;;;;;;;;5032598;28;20370;-85
2022/05/06 15:03:56;;;;;;;13.80;12.47;;;;;;;;;;5052924;28;20259;-85
2022/05/06 15:07:01;;;;;;;13.23;10.67;;;;;;;;;;5053903;28;20174;-84
2022/05/06 15:10:05;;;;;;;15.73;11.70;;;;;;;;;;5060608;28;20197;-85
2022/05/06 15:13:10;;;;;;;14.03;11.00;;;;;;;;;;5062654;28;20222;-85
2022/05/06 15:16:14;;;;;;;13.47;10.67;;;;;;;;;;5022380;28;20203;-85
2022/05/06 15:19:25;;;;;;;10.63;9.53;;;;;;;;;;5020105;28;20187;-85
2022/05/06 15:22:32;;;;;;;16.13;10.70;;;;;;;;;;5039410;28;20235;-86
2022/05/06 15:25:37;;;;;;;12.73;10.23;;;;;;;;;;5034823;28;20199;-86
2022/05/06 15:28:41;;;;;;;13.90;11.33;;;;;;;;;;5011866;28;20551;-86
2022/05/06 15:31:45;;;;;;;12.43;10.73;;;;;;;;;;5010947;28;20179;-86
2022/05/06 15:34:50;;;;;;;14.37;11.77;;;;;;;;;;5036751;28;20198;-85
2022/05/06 15:37:54;;;;;;;14.47;10.40;;;;;;;;;;5040669;28;20582;-86
2022/05/06 15:41:00;;;;;;;16.80;9.73;;;;;;;;;;5030686;28;20211;-86
2022/05/06 15:44:18;;;;;;;13.40;9.77;;;;;;;;;;5056037;23;20236;-87
2022/05/06 15:47:40;;;;;;;13.03;11.07;;;;;;;;;;5002634;28;20554;-87
2022/05/06 15:51:07;;;;;;;14.43;11.10;;;;;;;;;;4991376;28;20659;-87
2022/05/06 15:54:12;;;;;;;11.60;10.37;;;;;;;;;;5023469;28;20227;-87
2022/05/06 15:57:17;;;;;;;12.83;10.73;;;;;;;;;;5025803;28;20531;-87
2022/05/06 16:00:21;;;;;;;11.57;10.37;;;;;;;;;;5022777;28;20659;-87
2022/05/06 16:03:25;;;;;;;11.93;9.90;;;;;;;;;;5011410;28;20247;-87
2022/05/06 16:06:30;;;;;;;11.00;7.83;;;;;;;;;;5004983;28;20196;-87
2022/05/06 16:09:34;;;;;;;11.37;8.23;;;;;;;;;;5021382;28;20196;-87
2022/05/06 16:12:39;;;;;;;8.03;6.27;;;;;;;;;;5011248;28;20216;-87
2022/05/06 16:15:43;;;;;;;8.40;6.27;;;;;;;;;;5015080;28;20654;-86
2022/05/06 16:18:47;;;;;;;7.23;6.47;;;;;;;;;;4999710;28;20212;-89
2022/05/06 16:21:54;;;;;;;7.50;6.70;;;;;;;;;;4998587;28;20217;-89
2022/05/06 16:24:36;;;;;;;9.57;6.40;;;;;;;;;;5026305;23;20602;-78
2022/05/06 16:27:41;;;;;;;11.43;7.07;;;;;;;;;;5043621;28;20220;-78
2022/05/06 16:30:45;;;;;;;7.63;6.83;;;;;;;;;;5033094;28;20208;-77
2022/05/06 16:37:21;;;;;;;4.50;4.10;;;;;;;;;;5033079;28;20225;-77
2022/05/06 16:40:26;;;;;;;6.03;5.37;;;;;;;;;;5021111;28;20181;-77
2022/05/06 16:43:30;;;;;;;6.83;6.17;;;;;;;;;;5032961;28;20208;-77
2022/05/06 16:46:35;;;;;;;10.97;8.60;;;;;;;;;;5033072;28;20224;-77
2022/05/06 16:49:40;;;;;;;12.60;10.37;;;;;;;;;;5039882;28;20195;-77
2022/05/06 16:52:44;;;;;;;8.37;6.57;;;;;;;;;;5053716;28;20535;-77
2022/05/06 16:55:48;;;;;;;7.40;5.80;;;;;;;;;;5023356;28;20229;-77
2022/05/06 16:58:53;;;;;;;6.43;5.40;;;;;;;;;;5021925;28;20537;-77
2022/05/06 17:01:57;;;;;;;6.27;5.60;;;;;;;;;;5027054;28;20197;-78
2022/05/06 17:05:01;;;;;;;5.00;4.50;;;;;;;;;;5032769;28;20648;-77
2022/05/06 17:08:09;;;;;;;5.57;4.97;;;;;;;;;;5036550;28;20536;-77
2022/05/06 17:11:13;;;;;;;6.00;5.13;;;;;;;;;;5033682;28;20196;-77
2022/05/06 17:14:17;;;;;;;6.20;4.50;;;;;;;;;;5053477;28;20638;-77
2022/05/06 17:17:21;;;;;;;4.63;4.23;;;;;;;;;;5052959;28;20705;-78
2022/05/06 17:20:25;;;;;;;4.73;4.30;;;;;;;;;;5044092;28;20180;-78
2022/05/06 17:23:29;;;;;;;4.90;4.40;;;;;;;;;;5054871;28;20220;-78
2022/05/06 17:26:33;;;;;;;4.60;4.17;;;;;;;;;;5037343;28;20579;-77
2022/05/06 17:29:39;;;;;;;5.47;4.03;;;;;;;;;;5039275;28;20189;-78
2022/05/06 17:32:43;;;;;;;6.07;4.47;;;;;;;;;;5042944;28;20180;-77
2022/05/06 17:35:48;;;;;;;9.13;6.90;;;;;;;;;;5037071;28;20220;-77
2022/05/06 17:38:58;;;;;;;12.53;9.20;;;;;;;;;;5051240;28;20204;-78
2022/05/06 17:42:04;;;;;;;6.93;6.23;;;;;;;;;;5031993;28;20192;-78
2022/05/06 17:45:09;;;;;;;3.73;3.43;;;;;;;;;;5055640;28;20527;-77
2022/05/06 17:48:13;;;;;;;13.17;4.63;;;;;;;;;;5057994;28;20200;-78
2022/05/06 17:51:20;;;;;;;4.70;3.70;;;;;;;;;;5058122;28;20184;-78
2022/05/06 17:54:25;;;;;;;8.13;3.60;;;;;;;;;;5019323;28;20193;-78
2022/05/06 17:57:29;;;;;;;3.63;3.33;;;;;;;;;;5037755;28;20220;-78
2022/05/06 18:03:57;;;;;;;8.40;4.53;;;;;;;;;;5026564;28;20205;-77
2022/05/06 18:07:01;;;;;;;4.53;4.13;;;;;;;;;;5042901;28;20227;-77
2022/05/06 18:10:05;;;;;;;5.30;3.97;;;;;;;;;;5054895;28;20516;-78
2022/05/06 18:13:09;;;;;;;4.60;4.07;;;;;;;;;;5039239;28;20185;-77
2022/05/06 18:16:14;;;;;;;7.07;5.30;;;;;;;;;;5025895;28;20228;-78
2022/05/06 18:19:18;;;;;;;7.20;5.80;;;;;;;;;;5042802;28;20180;-78
2022/05/06 18:22:24;;;;;;;9.03;5.93;;;;;;;;;;5044936;28;20196;-78
2022/05/06 18:25:28;;;;;;;8.07;6.60;;;;;;;;;;5034596;28;20640;-77
2022/05/06 18:28:32;;;;;;;9.17;6.33;;;;;;;;;;5033959;28;20193;-77
2022/05/06 18:34:59;;;;;;;7.20;6.10;;;;;;;;;;5053301;28;20192;-77
2022/05/06 18:38:04;;;;;;;7.50;5.90;;;;;;;;;;5042289;28;20204;-77
2022/05/06 18:41:08;;;;;;;7.07;5.37;;;;;;;;;;5042622;28;20654;-77
2022/05/06 18:44:13;;;;;;;7.67;6.40;;;;;;;;;;5049592;28;20208;-77
2022/05/06 18:47:17;;;;;;;7.67;6.27;;;;;;;;;;5054976;28;20231;-78
2022/05/06 18:50:21;;;;;;;7.03;6.33;;;;;;;;;;5042498;28;20184;-77
2022/05/06 18:53:25;;;;;;;7.63;6.83;;;;;;;;;;5054292;28;20188;-78
2022/05/06 18:56:29;;;;;;;8.37;6.93;;;;;;;;;;5040584;28;20212;-77
2022/05/06 18:59:33;;;;;;;9.50;7.90;;;;;;;;;;5034520;28;20532;-77
2022/05/06 19:02:37;;;;;;;8.80;7.90;;;;;;;;;;5022458;28;20181;-78
2022/05/06 19:05:41;;;;;;;10.37;8.60;;;;;;;;;;5036290;28;20224;-78
2022/05/06 19:08:46;;;;;;;9.70;8.70;;;;;;;;;;5034556;28;20192;-77
2022/05/06 19:11:51;;;;;;;10.77;8.13;;;;;;;;;;5034031;28;20192;-78
2022/05/06 19:14:56;;;;;;;8.30;7.50;;;;;;;;;;5022665;28;20177;-77
2022/05/06 19:18:18;;;;;;;10.53;8.90;;;;;;;;;;5025105;28;20189;-77
2022/05/06 19:25:23;;;;;;;9.50;8.53;;;;;;;;;;5024364;28;20554;-77
2022/05/06 19:28:46;;;;;;;12.60;9.47;;;;;;;;;;5033955;28;20189;-78
2022/05/06 19:32:10;;;;;;;13.03;9.83;;;;;;;;;;5024623;28;20549;-77
2022/05/06 19:35:32;;;;;;;10.10;9.10;;;;;;;;;;5024556;28;20617;-77
2022/05/06 19:38:57;;;;;;;10.50;9.50;;;;;;;;;;5024125;28;20189;-77